Burrel, California
Current Conditions -  °F | °C
As of 1:56 PM on Monday 22 Dec 2014 (Local Time) from KNLC Reporting Station
Overcast Overcast  
Wind Chill: 60°   Ceiling: 3300
Heat Index: 60°   Visibility: 7mi
Dew Point: 55°   Wind: 13mph
Humidity: 83%   Direction: 320°NW
Pressure: 30.19"   Gusts: NA
Location:  36.49°N, 119.99°W
Report Text: KNLC 222156Z 32011KT 7SM SCT012 OVC033 16/13 A3019 RMK AO2 SLP222 RH/83 T01560128 $
Loading
Personal Weather Stations






























Interactive Weather Map New forecast layout! Learn more

10-Day Weather Forecast

Advertisements
Track Severe Weather on mobile